sensor_id;sensor_type;location;lat;lon;timestamp;pressure;altitude;pressure_sealevel;temperature;humidity
85163;BME280;75527;48.526;9.158;2024-03-17T00:01:35;97943.00;;;6.64;84.68
85163;BME280;75527;48.526;9.158;2024-03-17T00:04:01;97936.56;;;6.60;84.53
85163;BME280;75527;48.526;9.158;2024-03-17T00:06:26;97936.00;;;6.58;85.32
85163;BME280;75527;48.526;9.158;2024-03-17T00:08:51;97951.13;;;6.62;84.60
85163;BME280;75527;48.526;9.158;2024-03-17T00:11:17;97956.88;;;6.52;85.11
85163;BME280;75527;48.526;9.158;2024-03-17T00:13:42;97946.38;;;6.52;85.30
85163;BME280;75527;48.526;9.158;2024-03-17T00:16:07;97931.97;;;6.37;85.75
85163;BME280;75527;48.526;9.158;2024-03-17T00:18:32;97943.44;;;6.42;85.19
85163;BME280;75527;48.526;9.158;2024-03-17T00:20:58;97952.63;;;6.33;85.00
85163;BME280;75527;48.526;9.158;2024-03-17T00:23:24;97943.22;;;6.25;85.29
85163;BME280;75527;48.526;9.158;2024-03-17T00:25:50;97949.09;;;6.21;85.98
85163;BME280;75527;48.526;9.158;2024-03-17T00:28:16;97937.28;;;6.12;85.70
85163;BME280;75527;48.526;9.158;2024-03-17T00:30:41;97955.97;;;6.22;86.24
85163;BME280;75527;48.526;9.158;2024-03-17T00:33:06;97949.91;;;6.21;84.82
85163;BME280;75527;48.526;9.158;2024-03-17T00:35:32;97953.09;;;6.23;85.30
85163;BME280;75527;48.526;9.158;2024-03-17T00:37:58;97940.53;;;6.07;85.47
85163;BME280;75527;48.526;9.158;2024-03-17T00:40:23;97945.00;;;6.07;85.53
85163;BME280;75527;48.526;9.158;2024-03-17T00:42:49;97927.03;;;6.04;84.71
85163;BME280;75527;48.526;9.158;2024-03-17T00:45:14;97940.13;;;6.10;84.07
85163;BME280;75527;48.526;9.158;2024-03-17T00:47:40;97952.88;;;6.07;84.04
85163;BME280;75527;48.526;9.158;2024-03-17T00:50:06;97943.00;;;6.02;84.31
85163;BME280;75527;48.526;9.158;2024-03-17T00:52:33;97944.91;;;5.95;84.57
85163;BME280;75527;48.526;9.158;2024-03-17T00:54:59;97924.69;;;5.89;85.54
85163;BME280;75527;48.526;9.158;2024-03-17T00:57:24;97937.22;;;5.93;85.29
85163;BME280;75527;48.526;9.158;2024-03-17T00:59:50;97936.41;;;5.93;85.29
85163;BME280;75527;48.526;9.158;2024-03-17T01:02:16;97921.91;;;5.84;85.16
85163;BME280;75527;48.526;9.158;2024-03-17T01:04:42;97926.75;;;5.87;85.40
85163;BME280;75527;48.526;9.158;2024-03-17T01:07:08;97929.16;;;5.95;85.69
85163;BME280;75527;48.526;9.158;2024-03-17T01:09:34;97928.69;;;5.98;85.01
85163;BME280;75527;48.526;9.158;2024-03-17T01:12:00;97919.25;;;5.90;84.12
85163;BME280;75527;48.526;9.158;2024-03-17T01:14:27;97929.56;;;5.92;85.67
85163;BME280;75527;48.526;9.158;2024-03-17T01:16:52;97910.97;;;5.93;84.98
85163;BME280;75527;48.526;9.158;2024-03-17T01:19:18;97928.59;;;6.11;85.91
85163;BME280;75527;48.526;9.158;2024-03-17T01:21:43;97911.25;;;6.10;85.27
85163;BME280;75527;48.526;9.158;2024-03-17T01:24:08;97922.63;;;6.22;84.87
85163;BME280;75527;48.526;9.158;2024-03-17T01:26:34;97926.44;;;6.26;84.99
85163;BME280;75527;48.526;9.158;2024-03-17T01:28:59;97923.00;;;6.26;85.85
85163;BME280;75527;48.526;9.158;2024-03-17T01:31:24;97923.34;;;6.30;85.52
85163;BME280;75527;48.526;9.158;2024-03-17T01:33:50;97917.16;;;6.24;86.64
85163;BME280;75527;48.526;9.158;2024-03-17T01:36:15;97911.09;;;6.23;85.82
85163;BME280;75527;48.526;9.158;2024-03-17T01:38:41;97906.44;;;6.25;85.39
85163;BME280;75527;48.526;9.158;2024-03-17T01:41:06;97905.41;;;6.26;86.34
85163;BME280;75527;48.526;9.158;2024-03-17T01:43:32;97873.94;;;6.20;85.64
85163;BME280;75527;48.526;9.158;2024-03-17T01:45:58;97887.22;;;6.25;85.96
85163;BME280;75527;48.526;9.158;2024-03-17T01:48:25;97893.09;;;6.27;85.52
85163;BME280;75527;48.526;9.158;2024-03-17T01:50:53;97890.09;;;6.23;85.09
85163;BME280;75527;48.526;9.158;2024-03-17T01:53:21;97872.66;;;6.29;85.41
85163;BME280;75527;48.526;9.158;2024-03-17T01:55:49;97859.03;;;6.20;85.60
85163;BME280;75527;48.526;9.158;2024-03-17T01:58:15;97879.72;;;6.29;85.92
85163;BME280;75527;48.526;9.158;2024-03-17T02:00:41;97875.72;;;6.26;86.44
85163;BME280;75527;48.526;9.158;2024-03-17T02:03:08;97873.59;;;6.35;85.58
85163;BME280;75527;48.526;9.158;2024-03-17T02:05:37;97866.66;;;6.40;85.42
85163;BME280;75527;48.526;9.158;2024-03-17T02:08:06;97863.47;;;6.38;85.18
85163;BME280;75527;48.526;9.158;2024-03-17T02:10:34;97837.19;;;6.20;85.88
85163;BME280;75527;48.526;9.158;2024-03-17T02:13:01;97855.22;;;6.35;85.91
85163;BME280;75527;48.526;9.158;2024-03-17T02:15:28;97853.91;;;6.25;85.65
85163;BME280;75527;48.526;9.158;2024-03-17T02:17:53;97866.03;;;6.26;86.43
85163;BME280;75527;48.526;9.158;2024-03-17T02:20:19;97869.22;;;6.29;85.51
85163;BME280;75527;48.526;9.158;2024-03-17T02:22:44;97844.13;;;6.14;86.28
85163;BME280;75527;48.526;9.158;2024-03-17T02:25:10;97860.97;;;6.25;86.37
85163;BME280;75527;48.526;9.158;2024-03-17T02:27:36;97860.16;;;6.24;85.85
85163;BME280;75527;48.526;9.158;2024-03-17T02:30:02;97848.56;;;6.14;86.04
85163;BME280;75527;48.526;9.158;2024-03-17T02:32:27;97861.06;;;6.18;86.11
85163;BME280;75527;48.526;9.158;2024-03-17T02:34:53;97856.41;;;6.20;86.24
85163;BME280;75527;48.526;9.158;2024-03-17T02:37:18;97853.09;;;6.25;86.46
85163;BME280;75527;48.526;9.158;2024-03-17T02:39:44;97850.47;;;6.25;86.49
85163;BME280;75527;48.526;9.158;2024-03-17T02:42:10;97845.00;;;6.26;86.08
85163;BME280;75527;48.526;9.158;2024-03-17T02:44:37;97836.84;;;6.16;86.41
85163;BME280;75527;48.526;9.158;2024-03-17T02:47:03;97837.41;;;6.18;84.89
85163;BME280;75527;48.526;9.158;2024-03-17T02:49:30;97819.78;;;6.07;85.92
85163;BME280;75527;48.526;9.158;2024-03-17T02:52:02;97829.75;;;6.17;86.66
85163;BME280;75527;48.526;9.158;2024-03-17T02:54:27;97837.56;;;6.23;86.51
85163;BME280;75527;48.526;9.158;2024-03-17T02:56:52;97829.41;;;6.13;86.79
85163;BME280;75527;48.526;9.158;2024-03-17T02:59:18;97832.38;;;6.17;85.59
85163;BME280;75527;48.526;9.158;2024-03-17T03:01:43;97817.28;;;6.12;85.95
85163;BME280;75527;48.526;9.158;2024-03-17T03:04:10;97833.75;;;6.19;86.42
85163;BME280;75527;48.526;9.158;2024-03-17T03:06:35;97846.75;;;6.14;85.80
85163;BME280;75527;48.526;9.158;2024-03-17T03:09:00;97830.84;;;6.09;85.86
85163;BME280;75527;48.526;9.158;2024-03-17T03:11:26;97832.00;;;6.13;86.29
85163;BME280;75527;48.526;9.158;2024-03-17T03:13:51;97832.53;;;6.22;85.70
85163;BME280;75527;48.526;9.158;2024-03-17T03:16:16;97813.22;;;6.16;86.09
85163;BME280;75527;48.526;9.158;2024-03-17T03:18:44;97826.63;;;6.26;85.08
85163;BME280;75527;48.526;9.158;2024-03-17T03:21:09;97822.91;;;6.16;85.69
85163;BME280;75527;48.526;9.158;2024-03-17T03:23:35;97817.88;;;6.14;86.03
85163;BME280;75527;48.526;9.158;2024-03-17T03:26:02;97813.88;;;6.12;86.05
85163;BME280;75527;48.526;9.158;2024-03-17T03:28:30;97818.38;;;6.05;85.81
85163;BME280;75527;48.526;9.158;2024-03-17T03:30:55;97826.63;;;6.08;86.46
85163;BME280;75527;48.526;9.158;2024-03-17T03:33:21;97830.34;;;6.19;86.37
85163;BME280;75527;48.526;9.158;2024-03-17T03:35:47;97810.06;;;6.08;86.10
85163;BME280;75527;48.526;9.158;2024-03-17T03:38:13;97839.16;;;6.24;86.52
85163;BME280;75527;48.526;9.158;2024-03-17T03:40:39;97818.47;;;6.16;85.58
85163;BME280;75527;48.526;9.158;2024-03-17T03:43:05;97830.84;;;6.28;86.05
85163;BME280;75527;48.526;9.158;2024-03-17T03:45:30;97836.53;;;6.24;85.73
85163;BME280;75527;48.526;9.158;2024-03-17T03:47:55;97827.28;;;6.22;86.44
85163;BME280;75527;48.526;9.158;2024-03-17T03:50:21;97828.09;;;6.22;85.67
85163;BME280;75527;48.526;9.158;2024-03-17T03:52:47;97825.75;;;6.14;85.96
85163;BME280;75527;48.526;9.158;2024-03-17T03:55:16;97834.78;;;6.18;85.75
85163;BME280;75527;48.526;9.158;2024-03-17T03:57:42;97824.06;;;6.20;85.86
85163;BME280;75527;48.526;9.158;2024-03-17T04:00:11;97830.94;;;6.21;86.03
85163;BME280;75527;48.526;9.158;2024-03-17T04:02:42;97830.28;;;6.25;85.41
85163;BME280;75527;48.526;9.158;2024-03-17T04:05:09;97835.97;;;6.22;85.12
85163;BME280;75527;48.526;9.158;2024-03-17T04:07:35;97823.91;;;6.15;85.70
85163;BME280;75527;48.526;9.158;2024-03-17T04:10:04;97823.50;;;6.18;85.44
85163;BME280;75527;48.526;9.158;2024-03-17T04:12:30;97821.81;;;6.23;85.44
85163;BME280;75527;48.526;9.158;2024-03-17T04:14:59;97824.81;;;6.27;85.75
85163;BME280;75527;48.526;9.158;2024-03-17T04:17:25;97823.19;;;6.26;85.78
85163;BME280;75527;48.526;9.158;2024-03-17T04:19:51;97803.00;;;6.08;84.94
85163;BME280;75527;48.526;9.158;2024-03-17T04:22:18;97814.91;;;6.11;85.50
85163;BME280;75527;48.526;9.158;2024-03-17T04:24:44;97807.88;;;6.05;86.08
85163;BME280;75527;48.526;9.158;2024-03-17T04:27:10;97804.44;;;6.04;85.75
85163;BME280;75527;48.526;9.158;2024-03-17T04:29:35;97821.97;;;6.10;85.67
85163;BME280;75527;48.526;9.158;2024-03-17T04:32:01;97817.88;;;6.14;85.70
85163;BME280;75527;48.526;9.158;2024-03-17T04:34:29;97810.44;;;6.11;85.58
85163;BME280;75527;48.526;9.158;2024-03-17T04:36:54;97813.22;;;6.16;86.08
85163;BME280;75527;48.526;9.158;2024-03-17T04:39:20;97802.75;;;6.10;86.35
85163;BME280;75527;48.526;9.158;2024-03-17T04:41:46;97806.22;;;6.10;86.06
85163;BME280;75527;48.526;9.158;2024-03-17T04:44:12;97817.66;;;6.16;85.80
85163;BME280;75527;48.526;9.158;2024-03-17T04:46:37;97816.25;;;6.13;85.94
85163;BME280;75527;48.526;9.158;2024-03-17T04:49:02;97823.25;;;6.19;85.64
85163;BME280;75527;48.526;9.158;2024-03-17T04:51:29;97813.94;;;6.23;86.39
85163;BME280;75527;48.526;9.158;2024-03-17T04:53:54;97809.28;;;6.25;86.19
85163;BME280;75527;48.526;9.158;2024-03-17T04:56:19;97817.16;;;6.25;86.31
85163;BME280;75527;48.526;9.158;2024-03-17T04:58:44;97806.13;;;6.17;86.01
85163;BME280;75527;48.526;9.158;2024-03-17T05:01:10;97824.19;;;6.25;85.63
85163;BME280;75527;48.526;9.158;2024-03-17T05:03:35;97817.16;;;6.25;86.34
85163;BME280;75527;48.526;9.158;2024-03-17T05:06:04;97817.34;;;6.24;86.71
85163;BME280;75527;48.526;9.158;2024-03-17T05:08:31;97821.81;;;6.23;86.30
85163;BME280;75527;48.526;9.158;2024-03-17T05:11:01;97819.78;;;6.25;86.75
85163;BME280;75527;48.526;9.158;2024-03-17T05:13:30;97816.56;;;6.23;86.44
85163;BME280;75527;48.526;9.158;2024-03-17T05:15:55;97822.97;;;6.28;86.33
85163;BME280;75527;48.526;9.158;2024-03-17T05:18:20;97823.34;;;6.31;86.75
85163;BME280;75527;48.526;9.158;2024-03-17T05:20:47;97822.88;;;6.34;86.21
85163;BME280;75527;48.526;9.158;2024-03-17T05:23:13;97830.09;;;6.39;85.73
85163;BME280;75527;48.526;9.158;2024-03-17T05:25:39;97812.03;;;6.31;86.70
85163;BME280;75527;48.526;9.158;2024-03-17T05:28:04;97807.34;;;6.33;85.83
85163;BME280;75527;48.526;9.158;2024-03-17T05:30:29;97827.25;;;6.40;86.05
85163;BME280;75527;48.526;9.158;2024-03-17T05:32:55;97824.72;;;6.34;86.12
85163;BME280;75527;48.526;9.158;2024-03-17T05:35:21;97822.19;;;6.27;86.21
85163;BME280;75527;48.526;9.158;2024-03-17T05:37:48;97829.03;;;6.28;86.67
85163;BME280;75527;48.526;9.158;2024-03-17T05:40:14;97824.56;;;6.29;86.46
85163;BME280;75527;48.526;9.158;2024-03-17T05:42:42;97825.75;;;6.33;86.90
85163;BME280;75527;48.526;9.158;2024-03-17T05:45:10;97823.78;;;6.28;86.08
85163;BME280;75527;48.526;9.158;2024-03-17T05:47:37;97828.38;;;6.33;85.99
85163;BME280;75527;48.526;9.158;2024-03-17T05:50:03;97821.44;;;6.38;86.62
85163;BME280;75527;48.526;9.158;2024-03-17T05:52:28;97824.72;;;6.34;86.70
85163;BME280;75527;48.526;9.158;2024-03-17T05:54:54;97821.53;;;6.32;86.96
85163;BME280;75527;48.526;9.158;2024-03-17T05:57:21;97814.16;;;6.22;86.91
85163;BME280;75527;48.526;9.158;2024-03-17T05:59:46;97826.31;;;6.35;86.95
85163;BME280;75527;48.526;9.158;2024-03-17T06:02:12;97806.28;;;6.22;86.95
85163;BME280;75527;48.526;9.158;2024-03-17T06:04:37;97818.16;;;6.43;85.93
85163;BME280;75527;48.526;9.158;2024-03-17T06:07:03;97803.03;;;6.38;86.09
85163;BME280;75527;48.526;9.158;2024-03-17T06:09:29;97812.91;;;6.43;85.38
85163;BME280;75527;48.526;9.158;2024-03-17T06:11:54;97820.78;;;6.43;86.30
85163;BME280;75527;48.526;9.158;2024-03-17T06:14:19;97823.53;;;6.48;85.99
85163;BME280;75527;48.526;9.158;2024-03-17T06:16:46;97805.00;;;6.43;86.33
85163;BME280;75527;48.526;9.158;2024-03-17T06:19:11;97812.13;;;6.54;85.98
85163;BME280;75527;48.526;9.158;2024-03-17T06:21:37;97820.06;;;6.66;86.00
85163;BME280;75527;48.526;9.158;2024-03-17T06:24:04;97818.47;;;6.65;86.36
85163;BME280;75527;48.526;9.158;2024-03-17T06:26:31;97832.41;;;6.65;85.94
85163;BME280;75527;48.526;9.158;2024-03-17T06:28:59;97809.09;;;6.57;85.99
85163;BME280;75527;48.526;9.158;2024-03-17T06:31:24;97825.56;;;6.64;85.26
85163;BME280;75527;48.526;9.158;2024-03-17T06:33:50;97823.72;;;6.65;85.12
85163;BME280;75527;48.526;9.158;2024-03-17T06:36:15;97828.53;;;6.68;84.91
85163;BME280;75527;48.526;9.158;2024-03-17T06:38:41;97818.03;;;6.68;86.20
85163;BME280;75527;48.526;9.158;2024-03-17T06:41:06;97816.34;;;6.73;85.15
85163;BME280;75527;48.526;9.158;2024-03-17T06:43:31;97808.66;;;6.72;85.53
85163;BME280;75527;48.526;9.158;2024-03-17T06:45:59;97823.47;;;6.85;85.68
85163;BME280;75527;48.526;9.158;2024-03-17T06:48:25;97805.31;;;6.95;84.94
85163;BME280;75527;48.526;9.158;2024-03-17T06:50:52;97813.25;;;7.18;84.56
85163;BME280;75527;48.526;9.158;2024-03-17T06:53:19;97816.09;;;7.17;84.24
85163;BME280;75527;48.526;9.158;2024-03-17T06:55:55;97794.72;;;7.13;84.30
85163;BME280;75527;48.526;9.158;2024-03-17T06:58:22;97802.94;;;7.05;84.49
85163;BME280;75527;48.526;9.158;2024-03-17T07:00:57;97817.81;;;7.11;84.51
85163;BME280;75527;48.526;9.158;2024-03-17T07:03:28;97818.50;;;7.18;84.46
85163;BME280;75527;48.526;9.158;2024-03-17T07:05:55;97820.69;;;7.10;84.62
85163;BME280;75527;48.526;9.158;2024-03-17T07:08:22;97820.78;;;7.03;85.23
85163;BME280;75527;48.526;9.158;2024-03-17T07:13:21;97795.06;;;7.05;85.13
85163;BME280;75527;48.526;9.158;2024-03-17T07:15:47;97802.03;;;7.11;84.32
85163;BME280;75527;48.526;9.158;2024-03-17T07:18:13;97798.50;;;7.17;83.91
85163;BME280;75527;48.526;9.158;2024-03-17T07:20:38;97792.00;;;7.31;84.16
85163;BME280;75527;48.526;9.158;2024-03-17T07:23:04;97789.13;;;7.33;83.85
85163;BME280;75527;48.526;9.158;2024-03-17T07:25:30;97811.81;;;7.46;83.72
85163;BME280;75527;48.526;9.158;2024-03-17T07:27:55;97813.31;;;7.65;82.46
85163;BME280;75527;48.526;9.158;2024-03-17T07:30:20;97814.31;;;7.64;83.54
85163;BME280;75527;48.526;9.158;2024-03-17T07:32:45;97812.38;;;7.60;82.99
85163;BME280;75527;48.526;9.158;2024-03-17T07:35:11;97813.75;;;7.62;82.29
85163;BME280;75527;48.526;9.158;2024-03-17T07:37:36;97810.56;;;7.72;82.17
85163;BME280;75527;48.526;9.158;2024-03-17T07:40:04;97813.63;;;7.69;83.08
85163;BME280;75527;48.526;9.158;2024-03-17T07:42:31;97785.47;;;7.69;82.08
85163;BME280;75527;48.526;9.158;2024-03-17T07:44:57;97809.06;;;7.88;81.70
85163;BME280;75527;48.526;9.158;2024-03-17T07:47:22;97810.31;;;7.97;81.76
85163;BME280;75527;48.526;9.158;2024-03-17T07:49:47;97798.06;;;7.91;80.54
85163;BME280;75527;48.526;9.158;2024-03-17T07:52:13;97800.09;;;8.00;81.45
85163;BME280;75527;48.526;9.158;2024-03-17T07:54:38;97801.59;;;8.08;79.71
85163;BME280;75527;48.526;9.158;2024-03-17T07:57:03;97791.72;;;8.15;79.64
85163;BME280;75527;48.526;9.158;2024-03-17T07:59:29;97779.69;;;8.19;79.92
85163;BME280;75527;48.526;9.158;2024-03-17T08:01:56;97791.22;;;8.42;79.57
85163;BME280;75527;48.526;9.158;2024-03-17T08:04:21;97794.19;;;8.45;78.43
85163;BME280;75527;48.526;9.158;2024-03-17T08:06:47;97804.69;;;8.57;79.00
85163;BME280;75527;48.526;9.158;2024-03-17T08:09:12;97801.50;;;8.55;79.61
85163;BME280;75527;48.526;9.158;2024-03-17T08:11:37;97801.00;;;8.58;79.80
85163;BME280;75527;48.526;9.158;2024-03-17T08:14:03;97796.75;;;8.69;79.33
85163;BME280;75527;48.526;9.158;2024-03-17T08:16:30;97802.31;;;8.72;78.86
85163;BME280;75527;48.526;9.158;2024-03-17T08:18:56;97804.41;;;8.70;79.15
85163;BME280;75527;48.526;9.158;2024-03-17T08:21:22;97792.13;;;8.76;78.79
85163;BME280;75527;48.526;9.158;2024-03-17T08:23:47;97798.78;;;8.95;77.86
85163;BME280;75527;48.526;9.158;2024-03-17T08:26:13;97809.56;;;8.94;77.82
85163;BME280;75527;48.526;9.158;2024-03-17T08:28:38;97804.47;;;9.04;77.78
85163;BME280;75527;48.526;9.158;2024-03-17T08:31:04;97804.63;;;9.14;77.78
85163;BME280;75527;48.526;9.158;2024-03-17T08:33:30;97806.47;;;9.13;76.49
85163;BME280;75527;48.526;9.158;2024-03-17T08:35:59;97802.97;;;9.25;75.64
85163;BME280;75527;48.526;9.158;2024-03-17T08:38:26;97800.25;;;9.36;76.12
85163;BME280;75527;48.526;9.158;2024-03-17T08:40:53;97771.16;;;9.31;75.85
85163;BME280;75527;48.526;9.158;2024-03-17T08:43:20;97782.56;;;9.54;74.39
85163;BME280;75527;48.526;9.158;2024-03-17T08:46:01;97778.41;;;9.58;73.57
85163;BME280;75527;48.526;9.158;2024-03-17T08:48:29;97781.25;;;9.73;74.31
85163;BME280;75527;48.526;9.158;2024-03-17T08:50:56;97776.91;;;9.84;72.99
85163;BME280;75527;48.526;9.158;2024-03-17T08:53:22;97783.38;;;9.93;74.05
85163;BME280;75527;48.526;9.158;2024-03-17T08:55:48;97785.66;;;10.06;72.26
85163;BME280;75527;48.526;9.158;2024-03-17T08:58:14;97775.41;;;10.10;70.11
85163;BME280;75527;48.526;9.158;2024-03-17T09:00:39;97765.50;;;10.22;70.52
85163;BME280;75527;48.526;9.158;2024-03-17T09:03:06;97775.28;;;10.22;71.00
85163;BME280;75527;48.526;9.158;2024-03-17T09:05:32;97747.00;;;10.22;69.51
85163;BME280;75527;48.526;9.158;2024-03-17T09:07:58;97742.59;;;10.28;69.52
85163;BME280;75527;48.526;9.158;2024-03-17T09:10:24;97766.31;;;10.45;68.96
85163;BME280;75527;48.526;9.158;2024-03-17T09:12:49;97772.41;;;10.45;69.11
85163;BME280;75527;48.526;9.158;2024-03-17T09:15:14;97771.09;;;10.48;69.62
85163;BME280;75527;48.526;9.158;2024-03-17T09:17:39;97770.72;;;10.61;69.13
85163;BME280;75527;48.526;9.158;2024-03-17T09:20:06;97776.56;;;10.63;69.54
85163;BME280;75527;48.526;9.158;2024-03-17T09:22:37;97770.31;;;10.74;68.98
85163;BME280;75527;48.526;9.158;2024-03-17T09:25:05;97768.97;;;10.72;68.96
85163;BME280;75527;48.526;9.158;2024-03-17T09:27:30;97768.72;;;10.73;68.20
85163;BME280;75527;48.526;9.158;2024-03-17T09:29:56;97758.72;;;10.75;68.36
85163;BME280;75527;48.526;9.158;2024-03-17T09:32:21;97766.28;;;10.93;67.12
85163;BME280;75527;48.526;9.158;2024-03-17T09:34:47;97759.72;;;11.01;66.82
85163;BME280;75527;48.526;9.158;2024-03-17T09:37:15;97760.63;;;11.12;65.16
85163;BME280;75527;48.526;9.158;2024-03-17T09:39:41;97765.31;;;11.05;64.49
85163;BME280;75527;48.526;9.158;2024-03-17T09:42:17;97766.19;;;11.15;62.70
85163;BME280;75527;48.526;9.158;2024-03-17T09:44:45;97762.28;;;11.23;62.63
85163;BME280;75527;48.526;9.158;2024-03-17T09:47:18;97763.03;;;11.18;62.28
85163;BME280;75527;48.526;9.158;2024-03-17T09:49:43;97766.59;;;11.34;62.49
85163;BME280;75527;48.526;9.158;2024-03-17T09:52:19;97758.81;;;11.55;62.11
85163;BME280;75527;48.526;9.158;2024-03-17T09:54:45;97749.84;;;11.66;60.33
85163;BME280;75527;48.526;9.158;2024-03-17T09:57:16;97764.22;;;11.75;58.68
85163;BME280;75527;48.526;9.158;2024-03-17T09:59:42;97745.13;;;11.73;58.90
85163;BME280;75527;48.526;9.158;2024-03-17T10:02:15;97765.94;;;11.96;59.61
85163;BME280;75527;48.526;9.158;2024-03-17T10:04:41;97754.22;;;11.82;60.23
85163;BME280;75527;48.526;9.158;2024-03-17T10:07:06;97751.66;;;12.03;60.60
85163;BME280;75527;48.526;9.158;2024-03-17T10:09:32;97765.16;;;11.96;59.17
85163;BME280;75527;48.526;9.158;2024-03-17T10:11:57;97758.78;;;11.97;61.00
85163;BME280;75527;48.526;9.158;2024-03-17T10:14:23;97754.59;;;12.06;61.23
85163;BME280;75527;48.526;9.158;2024-03-17T10:16:48;97758.06;;;12.12;60.42
85163;BME280;75527;48.526;9.158;2024-03-17T10:19:15;97763.91;;;12.14;60.66
85163;BME280;75527;48.526;9.158;2024-03-17T10:21:45;97758.16;;;12.37;59.04
85163;BME280;75527;48.526;9.158;2024-03-17T10:24:20;97752.84;;;12.37;59.51
85163;BME280;75527;48.526;9.158;2024-03-17T10:26:51;97740.66;;;12.36;59.22
85163;BME280;75527;48.526;9.158;2024-03-17T10:29:30;97753.16;;;12.46;60.28
85163;BME280;75527;48.526;9.158;2024-03-17T10:32:02;97757.63;;;12.45;59.73
85163;BME280;75527;48.526;9.158;2024-03-17T10:34:28;97756.63;;;12.51;60.02
85163;BME280;75527;48.526;9.158;2024-03-17T10:37:19;97755.31;;;12.64;59.14
85163;BME280;75527;48.526;9.158;2024-03-17T10:39:50;97736.75;;;12.69;59.08
85163;BME280;75527;48.526;9.158;2024-03-17T10:42:23;97753.75;;;12.78;57.63
85163;BME280;75527;48.526;9.158;2024-03-17T10:44:49;97764.88;;;12.81;57.82
85163;BME280;75527;48.526;9.158;2024-03-17T10:47:25;97762.00;;;12.87;57.13
85163;BME280;75527;48.526;9.158;2024-03-17T10:49:52;97757.47;;;12.93;58.03
85163;BME280;75527;48.526;9.158;2024-03-17T10:52:19;97758.28;;;13.14;57.17
85163;BME280;75527;48.526;9.158;2024-03-17T10:54:49;97762.00;;;13.43;57.69
85163;BME280;75527;48.526;9.158;2024-03-17T11:00:00;97757.25;;;13.30;55.91
85163;BME280;75527;48.526;9.158;2024-03-17T11:02:29;97758.31;;;13.24;55.74
85163;BME280;75527;48.526;9.158;2024-03-17T11:04:59;97746.88;;;13.13;54.62
85163;BME280;75527;48.526;9.158;2024-03-17T11:07:25;97749.28;;;13.25;54.53
85163;BME280;75527;48.526;9.158;2024-03-17T11:09:53;97756.19;;;13.26;54.83
85163;BME280;75527;48.526;9.158;2024-03-17T11:17:52;97742.38;;;13.44;53.83
85163;BME280;75527;48.526;9.158;2024-03-17T11:20:25;97750.84;;;13.41;54.17
85163;BME280;75527;48.526;9.158;2024-03-17T11:22:52;97735.41;;;13.64;54.24
85163;BME280;75527;48.526;9.158;2024-03-17T11:28:09;97738.03;;;13.69;54.83
85163;BME280;75527;48.526;9.158;2024-03-17T11:47:01;97718.03;;;14.46;52.31
85163;BME280;75527;48.526;9.158;2024-03-17T11:49:35;97721.47;;;14.57;51.97
85163;BME280;75527;48.526;9.158;2024-03-17T11:52:04;97705.78;;;14.55;50.54
85163;BME280;75527;48.526;9.158;2024-03-17T11:54:31;97720.72;;;14.41;51.03
85163;BME280;75527;48.526;9.158;2024-03-17T11:57:02;97726.09;;;14.36;48.62
85163;BME280;75527;48.526;9.158;2024-03-17T11:59:28;97712.84;;;13.56;48.68
85163;BME280;75527;48.526;9.158;2024-03-17T12:01:54;97714.63;;;13.86;49.95
85163;BME280;75527;48.526;9.158;2024-03-17T12:04:21;97718.09;;;13.81;48.62
85163;BME280;75527;48.526;9.158;2024-03-17T12:06:50;97711.97;;;13.86;48.88
85163;BME280;75527;48.526;9.158;2024-03-17T12:09:23;97721.88;;;13.55;49.21
85163;BME280;75527;48.526;9.158;2024-03-17T12:12:00;97712.50;;;13.78;49.44
85163;BME280;75527;48.526;9.158;2024-03-17T12:14:26;97709.06;;;13.72;49.00
85163;BME280;75527;48.526;9.158;2024-03-17T12:16:56;97706.69;;;13.76;50.18
85163;BME280;75527;48.526;9.158;2024-03-17T12:19:23;97705.94;;;13.55;49.11
85163;BME280;75527;48.526;9.158;2024-03-17T12:21:52;97706.72;;;13.66;49.46
85163;BME280;75527;48.526;9.158;2024-03-17T12:24:20;97712.56;;;13.63;50.05
85163;BME280;75527;48.526;9.158;2024-03-17T12:26:46;97700.59;;;13.65;51.05
85163;BME280;75527;48.526;9.158;2024-03-17T12:29:29;97680.19;;;13.50;50.31
85163;BME280;75527;48.526;9.158;2024-03-17T12:31:59;97692.94;;;13.43;50.96
85163;BME280;75527;48.526;9.158;2024-03-17T12:34:26;97695.09;;;13.26;50.48
85163;BME280;75527;48.526;9.158;2024-03-17T12:36:53;97691.91;;;13.34;51.28
85163;BME280;75527;48.526;9.158;2024-03-17T12:39:21;97690.84;;;13.35;50.28
85163;BME280;75527;48.526;9.158;2024-03-17T12:42:01;97677.00;;;13.33;50.30
85163;BME280;75527;48.526;9.158;2024-03-17T12:44:28;97666.38;;;13.38;50.82
85163;BME280;75527;48.526;9.158;2024-03-17T12:46:55;97676.97;;;13.53;51.46
85163;BME280;75527;48.526;9.158;2024-03-17T12:49:21;97674.56;;;13.57;50.81
85163;BME280;75527;48.526;9.158;2024-03-17T12:51:50;97672.22;;;13.50;51.43
85163;BME280;75527;48.526;9.158;2024-03-17T12:54:15;97666.63;;;13.52;51.38
85163;BME280;75527;48.526;9.158;2024-03-17T12:56:42;97655.50;;;13.45;51.53
85163;BME280;75527;48.526;9.158;2024-03-17T12:59:36;97655.94;;;13.67;49.66
85163;BME280;75527;48.526;9.158;2024-03-17T13:02:20;97638.91;;;13.68;50.57
85163;BME280;75527;48.526;9.158;2024-03-17T13:04:46;97649.22;;;13.85;50.33
85163;BME280;75527;48.526;9.158;2024-03-17T13:07:11;97644.44;;;13.87;50.11
85163;BME280;75527;48.526;9.158;2024-03-17T13:09:37;97648.06;;;14.06;48.36
85163;BME280;75527;48.526;9.158;2024-03-17T13:12:10;97648.47;;;14.29;48.87
85163;BME280;75527;48.526;9.158;2024-03-17T13:14:37;97655.16;;;14.66;48.11
85163;BME280;75527;48.526;9.158;2024-03-17T13:17:02;97650.44;;;14.87;47.93
85163;BME280;75527;48.526;9.158;2024-03-17T13:19:28;97641.19;;;15.08;47.19
85163;BME280;75527;48.526;9.158;2024-03-17T13:21:53;97640.88;;;15.15;46.72
85163;BME280;75527;48.526;9.158;2024-03-17T13:24:18;97632.06;;;15.43;46.22
85163;BME280;75527;48.526;9.158;2024-03-17T13:26:44;97620.91;;;15.60;45.19
85163;BME280;75527;48.526;9.158;2024-03-17T13:29:10;97628.09;;;15.41;46.52
85163;BME280;75527;48.526;9.158;2024-03-17T13:31:35;97629.56;;;15.52;46.87
85163;BME280;75527;48.526;9.158;2024-03-17T13:34:00;97622.16;;;15.25;46.47
85163;BME280;75527;48.526;9.158;2024-03-17T13:36:25;97627.91;;;15.32;46.30